createdAt,value
2023-01-08T00:01:08.193Z,89.48
2023-01-08T00:03:36.500Z,89.98
2023-01-08T00:06:05.919Z,89.64
2023-01-08T00:08:34.651Z,89.33
2023-01-08T00:11:04.087Z,90.03
2023-01-08T00:13:32.283Z,89.31
2023-01-08T00:16:04.239Z,90.21
2023-01-08T00:18:32.327Z,89.37
2023-01-08T00:21:00.549Z,89.62
2023-01-08T00:23:28.852Z,89.81
2023-01-08T00:25:56.962Z,89.60
2023-01-08T00:28:26.435Z,89.43
2023-01-08T00:30:54.602Z,89.71
2023-01-08T00:33:22.901Z,88.62
2023-01-08T00:35:50.993Z,89.32
2023-01-08T00:38:19.064Z,89.86
2023-01-08T00:40:49.337Z,89.98
2023-01-08T00:43:17.387Z,89.56
2023-01-08T00:45:46.914Z,89.98
2023-01-08T00:48:14.949Z,89.73
2023-01-08T00:50:43.023Z,89.70
2023-01-08T00:53:11.094Z,89.25
2023-01-08T00:55:39.177Z,87.65
2023-01-08T00:58:07.371Z,88.21
2023-01-08T01:00:35.411Z,89.11
2023-01-08T01:03:05.020Z,89.28
2023-01-08T01:05:33.083Z,89.13
2023-01-08T01:08:01.169Z,89.47
2023-01-08T01:10:29.229Z,89.40
2023-01-08T01:12:57.381Z,87.83
2023-01-08T01:15:25.441Z,89.15
2023-01-08T01:17:53.498Z,89.19
2023-01-08T01:20:23.818Z,89.13
2023-01-08T01:22:52.085Z,88.62
2023-01-08T01:25:20.428Z,87.93
2023-01-08T01:27:48.586Z,88.25
2023-01-08T01:30:16.969Z,89.35
2023-01-08T01:32:45.038Z,89.43
2023-01-08T01:35:13.110Z,89.22
2023-01-08T01:37:42.548Z,89.32
2023-01-08T01:40:11.623Z,87.15
2023-01-08T01:42:43.824Z,87.72
2023-01-08T01:45:21.163Z,88.57
2023-01-08T01:47:51.811Z,88.25
2023-01-08T01:50:24.493Z,88.64
2023-01-08T01:52:59.788Z,89.36
2023-01-08T01:55:28.789Z,89.34
2023-01-08T01:58:02.418Z,88.67
2023-01-08T02:00:30.614Z,88.94
2023-01-08T02:02:58.844Z,88.53
2023-01-08T02:05:31.706Z,88.82
2023-01-08T02:08:05.726Z,88.01
2023-01-08T02:10:37.994Z,88.38
2023-01-08T02:13:10.279Z,88.46
2023-01-08T02:15:43.819Z,89.03
2023-01-08T02:18:15.995Z,89.29
2023-01-08T02:20:47.513Z,88.77
2023-01-08T02:23:27.596Z,88.35
2023-01-08T02:26:16.939Z,88.12
2023-01-08T02:28:48.736Z,88.15
2023-01-08T02:31:17.493Z,88.79
2023-01-08T02:33:45.663Z,89.04
2023-01-08T02:36:44.581Z,87.75
2023-01-08T02:39:30.862Z,88.45
2023-01-08T02:42:07.220Z,87.33
2023-01-08T02:44:42.567Z,88.52
2023-01-08T02:47:17.001Z,88.75
2023-01-08T02:49:48.113Z,88.47
2023-01-08T02:52:17.648Z,88.05
2023-01-08T02:54:48.192Z,88.26
2023-01-08T02:57:18.916Z,87.68
2023-01-08T02:59:49.751Z,87.55
2023-01-08T03:02:18.543Z,88.31
2023-01-08T03:04:53.495Z,88.27
2023-01-08T03:07:21.845Z,88.10
2023-01-08T03:09:50.159Z,88.11
2023-01-08T03:12:24.851Z,88.71
2023-01-08T03:14:57.012Z,88.42
2023-01-08T03:17:28.078Z,88.69
2023-01-08T03:20:00.613Z,88.30
2023-01-08T03:22:30.507Z,88.81
2023-01-08T03:24:59.994Z,88.86
2023-01-08T03:27:32.105Z,88.58
2023-01-08T03:30:00.929Z,88.22
2023-01-08T03:32:30.491Z,88.20
2023-01-08T03:35:00.569Z,89.01
2023-01-08T03:37:31.513Z,88.90
2023-01-08T03:40:01.906Z,88.78
2023-01-08T03:42:32.618Z,89.11
2023-01-08T03:45:01.075Z,89.07
2023-01-08T03:47:31.155Z,88.61
2023-01-08T03:50:01.742Z,88.57
2023-01-08T03:52:31.694Z,89.05
2023-01-08T03:55:00.033Z,89.19
2023-01-08T03:57:28.509Z,89.36
2023-01-08T03:59:57.963Z,89.11
2023-01-08T04:02:26.160Z,89.34
2023-01-08T04:04:54.317Z,89.57
2023-01-08T04:07:22.789Z,89.49
2023-01-08T04:09:50.845Z,89.41
2023-01-08T04:12:18.996Z,89.45
2023-01-08T04:14:47.070Z,89.68
2023-01-08T04:17:16.515Z,89.79
2023-01-08T04:19:44.571Z,89.51
2023-01-08T04:22:13.037Z,89.94
2023-01-08T04:24:41.096Z,90.23
2023-01-08T04:27:09.182Z,90.15
2023-01-08T04:29:37.251Z,90.45
2023-01-08T04:32:05.749Z,90.43
2023-01-08T04:34:35.207Z,90.45
2023-01-08T04:37:03.297Z,90.27
2023-01-08T04:39:31.450Z,90.50
2023-01-08T04:41:59.503Z,90.57
2023-01-08T04:44:27.564Z,90.64
2023-01-08T04:46:55.778Z,90.74
2023-01-08T04:49:23.921Z,90.54
2023-01-08T04:51:53.358Z,90.52
2023-01-08T04:54:21.439Z,90.46
2023-01-08T04:56:53.614Z,90.77
2023-01-08T04:59:21.709Z,90.83
2023-01-08T05:01:49.886Z,90.85
2023-01-08T05:04:18.070Z,90.64
2023-01-08T05:06:46.111Z,91.00
2023-01-08T05:09:15.536Z,91.05
2023-01-08T05:11:43.711Z,91.01
2023-01-08T05:14:12.021Z,90.88
2023-01-08T05:16:40.145Z,90.99
2023-01-08T05:19:08.492Z,90.91
2023-01-08T05:21:36.642Z,90.94
2023-01-08T05:24:05.136Z,90.96
2023-01-08T05:26:35.034Z,91.05
2023-01-08T05:29:03.131Z,91.23
2023-01-08T05:31:31.401Z,90.83
2023-01-08T05:33:59.772Z,91.13
2023-01-08T05:36:28.252Z,91.49
2023-01-08T05:38:56.522Z,91.15
2023-01-08T05:41:24.585Z,91.07
2023-01-08T05:43:54.043Z,91.08
2023-01-08T05:46:22.234Z,91.34
2023-01-08T05:48:50.357Z,91.34
2023-01-08T05:51:18.406Z,91.41
2023-01-08T05:53:46.475Z,91.39
2023-01-08T05:56:14.580Z,91.37
2023-01-08T05:58:42.665Z,91.60
2023-01-08T06:01:15.811Z,91.65
2023-01-08T06:03:43.995Z,91.77
2023-01-08T06:06:13.133Z,91.79
2023-01-08T06:08:41.239Z,91.89
2023-01-08T06:11:10.295Z,91.76
2023-01-08T06:13:38.804Z,91.76
2023-01-08T06:16:07.347Z,91.87
2023-01-08T06:18:36.955Z,92.01
2023-01-08T06:21:05.670Z,92.15
2023-01-08T06:23:33.815Z,91.93
2023-01-08T06:26:04.193Z,91.96
2023-01-08T06:28:32.805Z,92.31
2023-01-08T06:31:01.146Z,92.18
2023-01-08T06:33:30.010Z,92.24
2023-01-08T06:36:04.355Z,92.14
2023-01-08T06:38:33.305Z,92.10
2023-01-08T06:41:04.931Z,92.24
2023-01-08T06:43:33.697Z,92.17
2023-01-08T06:46:05.005Z,92.32
2023-01-08T06:48:33.243Z,92.28
2023-01-08T06:51:03.079Z,92.09
2023-01-08T06:53:31.567Z,92.17
2023-01-08T06:55:59.647Z,92.07
2023-01-08T06:58:28.871Z,92.07
2023-01-08T07:00:58.981Z,92.33
2023-01-08T07:03:27.591Z,92.10
2023-01-08T07:05:56.005Z,92.32
2023-01-08T07:08:25.803Z,92.00
2023-01-08T07:10:53.864Z,91.86
2023-01-08T07:13:23.867Z,92.04
2023-01-08T07:15:52.030Z,92.10
2023-01-08T07:18:20.201Z,91.96
2023-01-08T07:20:49.750Z,91.80
2023-01-08T07:23:17.820Z,91.96
2023-01-08T07:25:47.468Z,91.75
2023-01-08T07:28:15.572Z,91.85
2023-01-08T07:30:44.796Z,91.92
2023-01-08T07:33:12.885Z,91.73
2023-01-08T07:35:40.993Z,91.85
2023-01-08T07:38:09.032Z,91.94
2023-01-08T07:40:39.277Z,91.80
2023-01-08T07:43:12.431Z,91.82
2023-01-08T07:45:40.687Z,91.92
2023-01-08T07:48:10.510Z,92.02
2023-01-08T07:50:41.424Z,92.14
2023-01-08T07:53:10.008Z,91.96
2023-01-08T07:55:38.094Z,92.17
2023-01-08T07:58:11.557Z,92.24
2023-01-08T08:00:39.850Z,92.27
2023-01-08T08:03:11.482Z,92.48
2023-01-08T08:05:39.851Z,92.43
2023-01-08T08:08:11.619Z,92.59
2023-01-08T08:10:40.302Z,92.62
2023-01-08T08:13:09.889Z,92.81
2023-01-08T08:15:38.778Z,92.73
2023-01-08T08:18:07.368Z,92.68
2023-01-08T08:20:35.560Z,92.62
2023-01-08T08:23:04.510Z,92.68
2023-01-08T08:25:33.117Z,92.76
2023-01-08T08:28:02.563Z,92.72
2023-01-08T08:30:33.565Z,92.88
2023-01-08T08:33:04.021Z,93.29
2023-01-08T08:35:33.637Z,93.21
2023-01-08T08:38:02.099Z,93.04
2023-01-08T08:40:30.286Z,92.97
2023-01-08T08:42:58.665Z,93.20
2023-01-08T08:45:27.300Z,93.06
2023-01-08T08:47:56.783Z,93.41
2023-01-08T08:50:25.160Z,93.25
2023-01-08T08:52:53.267Z,93.14
2023-01-08T08:55:21.310Z,93.08
2023-01-08T08:57:49.551Z,93.32
2023-01-08T09:00:17.875Z,93.25
2023-01-08T09:02:46.065Z,93.46
2023-01-08T09:05:15.636Z,93.63
2023-01-08T09:07:43.678Z,93.53
2023-01-08T09:10:11.745Z,93.64
2023-01-08T09:12:39.808Z,93.74
2023-01-08T09:15:09.029Z,93.84
2023-01-08T09:17:37.455Z,93.85
2023-01-08T09:20:06.490Z,93.96
2023-01-08T09:22:35.926Z,94.56
2023-01-08T09:25:04.234Z,94.63
2023-01-08T09:27:32.267Z,94.84
2023-01-08T09:30:00.341Z,94.88
2023-01-08T09:32:28.410Z,94.99
2023-01-08T09:34:56.497Z,95.18
2023-01-08T09:37:24.642Z,95.43
2023-01-08T09:40:01.571Z,95.48
2023-01-08T09:42:31.354Z,96.65
2023-01-08T09:45:01.050Z,96.02
2023-01-08T09:47:32.316Z,96.86
2023-01-08T09:50:04.063Z,96.71
2023-01-08T09:52:32.688Z,96.02
2023-01-08T09:55:02.537Z,96.31
2023-01-08T09:57:30.847Z,96.01
2023-01-08T09:59:59.558Z,96.22
2023-01-08T10:02:29.085Z,96.48
2023-01-08T10:04:59.061Z,96.46
2023-01-08T10:07:28.495Z,96.09
2023-01-08T10:09:57.004Z,96.25
2023-01-08T10:12:29.894Z,96.51
2023-01-08T10:15:01.385Z,96.33
2023-01-08T10:17:32.861Z,95.91
2023-01-08T10:20:01.037Z,96.22
2023-01-08T10:22:33.830Z,96.24
2023-01-08T10:25:09.114Z,96.84
2023-01-08T10:27:47.213Z,96.61
2023-01-08T10:30:19.948Z,96.66
2023-01-08T10:32:54.753Z,96.64
2023-01-08T10:35:25.685Z,96.42
2023-01-08T10:37:53.770Z,96.34
2023-01-08T10:40:29.466Z,96.73
2023-01-08T10:43:07.331Z,96.81
2023-01-08T10:45:35.493Z,96.78
2023-01-08T10:48:07.023Z,96.23
2023-01-08T10:50:35.939Z,96.26
2023-01-08T10:53:05.708Z,96.75
2023-01-08T10:55:36.053Z,96.77
2023-01-08T10:58:14.783Z,97.19
2023-01-08T11:00:43.065Z,97.06
2023-01-08T11:03:21.639Z,96.79
2023-01-08T11:05:50.153Z,96.94
2023-01-08T11:08:22.804Z,97.15
2023-01-08T11:11:01.878Z,97.33
2023-01-08T11:13:31.663Z,96.90
2023-01-08T11:16:03.257Z,96.71
2023-01-08T11:18:31.837Z,96.50
2023-01-08T11:21:10.793Z,96.77
2023-01-08T11:23:38.922Z,97.11
2023-01-08T11:26:09.624Z,96.88
2023-01-08T11:28:50.452Z,96.49
2023-01-08T11:31:22.604Z,96.76
2023-01-08T11:33:54.811Z,96.63
2023-01-08T11:36:27.705Z,96.73
2023-01-08T11:38:55.757Z,96.82
2023-01-08T11:41:36.780Z,96.30
2023-01-08T11:44:31.237Z,96.16
2023-01-08T11:47:06.571Z,96.44
2023-01-08T11:49:47.276Z,96.33
2023-01-08T11:52:26.948Z,96.69
2023-01-08T11:55:16.893Z,96.23
2023-01-08T11:57:56.834Z,96.51
2023-01-08T12:00:38.186Z,96.60
2023-01-08T12:03:17.714Z,97.02
2023-01-08T12:05:49.203Z,96.55
2023-01-08T12:08:24.952Z,96.67
2023-01-08T12:11:04.540Z,96.26
2023-01-08T12:13:44.581Z,95.70
2023-01-08T12:16:24.745Z,95.85
2023-01-08T12:19:08.245Z,95.28
2023-01-08T12:21:47.258Z,94.86
2023-01-08T12:24:41.574Z,94.26
2023-01-08T12:27:15.646Z,94.02
2023-01-08T12:29:57.112Z,94.31
2023-01-08T12:32:30.227Z,93.92
2023-01-08T12:35:04.526Z,93.89
2023-01-08T12:37:37.742Z,93.87
2023-01-08T12:40:14.655Z,93.64
2023-01-08T12:42:50.275Z,93.37
2023-01-08T12:45:27.197Z,93.46
2023-01-08T12:48:00.110Z,93.03
2023-01-08T12:50:40.494Z,93.70
2023-01-08T12:53:14.184Z,93.45
2023-01-08T12:55:47.478Z,93.30
2023-01-08T12:58:26.088Z,92.35
2023-01-08T13:01:02.046Z,92.04
2023-01-08T13:03:33.033Z,92.14
2023-01-08T13:06:12.336Z,92.51
2023-01-08T13:08:42.023Z,93.07
2023-01-08T13:11:10.492Z,93.67
2023-01-08T13:13:41.803Z,92.93
2023-01-08T13:16:20.023Z,92.31
2023-01-08T13:19:04.958Z,92.31
2023-01-08T13:21:36.258Z,91.20
2023-01-08T13:24:23.205Z,90.61
2023-01-08T13:26:51.785Z,89.60
2023-01-08T13:29:41.331Z,88.25
2023-01-08T13:32:27.251Z,89.38
2023-01-08T13:35:18.915Z,89.15
2023-01-08T13:37:48.879Z,88.35
2023-01-08T13:40:38.303Z,88.10
2023-01-08T13:43:07.571Z,89.33
2023-01-08T13:45:36.764Z,89.75
2023-01-08T13:48:05.198Z,89.55
2023-01-08T13:50:35.200Z,89.08
2023-01-08T13:53:04.172Z,90.00
2023-01-08T13:55:34.661Z,90.06
2023-01-08T13:58:05.011Z,90.21
2023-01-08T14:00:44.440Z,90.37
2023-01-08T14:03:26.784Z,90.52
2023-01-08T14:06:07.130Z,91.00
2023-01-08T14:08:35.431Z,90.53
2023-01-08T14:11:05.802Z,90.70
2023-01-08T14:13:35.686Z,90.49
2023-01-08T14:16:05.652Z,90.82
2023-01-08T14:18:33.925Z,90.61
2023-01-08T14:21:03.748Z,90.46
2023-01-08T14:23:35.821Z,90.49
2023-01-08T14:26:06.444Z,89.54
2023-01-08T14:28:34.524Z,90.80
2023-01-08T14:31:02.791Z,90.12
2023-01-08T14:33:34.802Z,89.98
2023-01-08T14:36:07.207Z,90.71
2023-01-08T14:38:35.396Z,90.93
2023-01-08T14:41:04.938Z,90.96
2023-01-08T14:43:34.834Z,90.89
2023-01-08T14:46:03.833Z,91.07
2023-01-08T14:48:40.514Z,90.95
2023-01-08T14:51:11.923Z,90.72
2023-01-08T14:53:44.261Z,91.22
2023-01-08T14:56:13.695Z,90.57
2023-01-08T14:58:44.507Z,91.06
2023-01-08T15:01:16.895Z,91.18
2023-01-08T15:03:46.201Z,90.89
2023-01-08T15:06:25.098Z,91.02
2023-01-08T15:08:53.221Z,90.91
2023-01-08T15:11:24.356Z,91.38
2023-01-08T15:13:53.752Z,91.23
2023-01-08T15:16:28.133Z,91.19
2023-01-08T15:19:02.548Z,91.28
2023-01-08T15:21:32.125Z,91.47
2023-01-08T15:24:01.437Z,91.60
2023-01-08T15:26:29.684Z,91.47
2023-01-08T15:28:59.185Z,91.25
2023-01-08T15:31:29.277Z,91.48
2023-01-08T15:33:58.078Z,91.47
2023-01-08T15:36:26.271Z,91.71
2023-01-08T15:38:55.750Z,91.59
2023-01-08T15:41:42.109Z,91.70
2023-01-08T15:44:12.396Z,91.39
2023-01-08T15:46:40.475Z,91.72
2023-01-08T15:49:11.475Z,92.17
2023-01-08T15:51:43.767Z,92.08
2023-01-08T15:54:13.882Z,92.10
2023-01-08T15:56:42.260Z,91.83
2023-01-08T15:59:11.364Z,92.03
2023-01-08T16:01:39.600Z,91.94
2023-01-08T16:04:07.922Z,92.10
2023-01-08T16:06:36.354Z,92.23
2023-01-08T16:09:04.640Z,92.14
2023-01-08T16:11:34.083Z,92.63
2023-01-08T16:14:02.166Z,92.78
2023-01-08T16:16:30.479Z,92.88
2023-01-08T16:19:00.377Z,92.71
2023-01-08T16:21:28.455Z,93.03
2023-01-08T16:23:56.541Z,93.09
2023-01-08T16:26:24.616Z,93.00
2023-01-08T16:28:54.425Z,93.12
2023-01-08T16:31:22.584Z,93.36
2023-01-08T16:33:50.678Z,93.01
2023-01-08T16:36:18.747Z,93.11
2023-01-08T16:38:48.674Z,92.94
2023-01-08T16:41:16.762Z,92.96
2023-01-08T16:43:45.310Z,92.81
2023-01-08T16:46:18.014Z,92.68
2023-01-08T16:48:48.484Z,92.68
2023-01-08T16:51:16.921Z,92.89
2023-01-08T16:53:45.002Z,92.94
2023-01-08T16:56:13.080Z,92.90
2023-01-08T16:58:41.125Z,92.98
2023-01-08T17:01:11.329Z,92.99
2023-01-08T17:03:41.401Z,93.15
2023-01-08T17:06:12.516Z,93.07
2023-01-08T17:08:41.593Z,93.13
2023-01-08T17:11:10.986Z,93.30
2023-01-08T17:13:39.089Z,92.97
2023-01-08T17:16:08.946Z,92.96
2023-01-08T17:18:38.091Z,93.27
2023-01-08T17:21:08.159Z,93.07
2023-01-08T17:23:37.086Z,93.12
2023-01-08T17:26:08.371Z,93.15
2023-01-08T17:28:36.551Z,92.92
2023-01-08T17:31:05.977Z,92.49
2023-01-08T17:33:35.417Z,92.79
2023-01-08T17:36:11.286Z,92.74
2023-01-08T17:38:39.390Z,92.57
2023-01-08T17:41:09.028Z,92.50
2023-01-08T17:43:37.973Z,92.49
2023-01-08T17:46:07.609Z,91.61
2023-01-08T17:48:35.871Z,92.19
2023-01-08T17:51:09.379Z,92.27
2023-01-08T17:53:39.043Z,91.69
2023-01-08T17:56:08.084Z,92.18
2023-01-08T17:58:36.188Z,91.96
2023-01-08T18:01:04.470Z,91.39
2023-01-08T18:03:32.569Z,91.74
2023-01-08T18:06:06.039Z,91.72
2023-01-08T18:08:34.150Z,91.29
2023-01-08T18:11:04.877Z,91.17
2023-01-08T18:13:34.096Z,91.52
2023-01-08T18:16:03.520Z,91.67
2023-01-08T18:18:31.821Z,91.76
2023-01-08T18:20:59.993Z,91.33
2023-01-08T18:23:28.173Z,91.29
2023-01-08T18:25:56.286Z,91.52
2023-01-08T18:28:25.734Z,91.57
2023-01-08T18:30:53.804Z,91.51
2023-01-08T18:33:22.896Z,91.56
2023-01-08T18:35:50.958Z,91.79
2023-01-08T18:38:19.861Z,91.87
2023-01-08T18:40:48.472Z,92.18
2023-01-08T18:43:16.546Z,92.15
2023-01-08T18:45:46.006Z,92.27
2023-01-08T18:48:14.129Z,92.36
2023-01-08T18:50:42.246Z,92.73
2023-01-08T18:53:10.549Z,92.87
2023-01-08T18:55:38.759Z,93.46
2023-01-08T18:58:06.817Z,93.16
2023-01-08T19:00:36.315Z,93.51
2023-01-08T19:03:08.989Z,93.76
2023-01-08T19:05:41.703Z,93.95
2023-01-08T19:08:09.863Z,93.95
2023-01-08T19:10:38.582Z,94.35
2023-01-08T19:13:07.360Z,94.50
2023-01-08T19:15:35.424Z,94.44
2023-01-08T19:18:06.329Z,94.58
2023-01-08T19:20:34.408Z,94.52
2023-01-08T19:23:03.129Z,94.62
2023-01-08T19:25:31.267Z,95.08
2023-01-08T19:27:59.439Z,95.19
2023-01-08T19:30:28.755Z,95.24
2023-01-08T19:32:56.835Z,95.16
2023-01-08T19:35:26.273Z,95.58
2023-01-08T19:37:54.372Z,95.41
2023-01-08T19:40:22.478Z,95.49
2023-01-08T19:43:07.860Z,95.79
2023-01-08T19:45:37.825Z,96.25
2023-01-08T19:48:06.546Z,95.91
2023-01-08T19:50:38.243Z,95.94
2023-01-08T19:53:06.349Z,96.46
2023-01-08T19:55:37.298Z,96.89
2023-01-08T19:58:05.548Z,96.40
2023-01-08T20:00:37.354Z,96.69
2023-01-08T20:03:06.549Z,97.28
2023-01-08T20:05:36.007Z,96.84
2023-01-08T20:08:04.094Z,96.32
2023-01-08T20:10:32.181Z,96.13
2023-01-08T20:13:00.382Z,96.24
2023-01-08T20:15:29.017Z,96.26
2023-01-08T20:17:57.154Z,96.42
2023-01-08T20:20:25.240Z,96.45
2023-01-08T20:22:54.657Z,96.66
2023-01-08T20:25:23.721Z,96.39
2023-01-08T20:27:51.811Z,96.05
2023-01-08T20:30:20.295Z,96.08
2023-01-08T20:35:21.408Z,96.20
2023-01-08T20:37:49.473Z,95.88
2023-01-08T20:40:19.111Z,96.17
2023-01-08T20:42:47.173Z,96.07
2023-01-08T20:45:15.282Z,96.02
2023-01-08T20:47:43.502Z,95.82
2023-01-08T20:50:19.764Z,95.74
2023-01-08T20:52:48.544Z,95.89
2023-01-08T20:55:18.749Z,95.71
2023-01-08T20:57:46.944Z,96.24
2023-01-08T21:00:15.880Z,95.98
2023-01-08T21:02:44.667Z,96.15
2023-01-08T21:05:12.760Z,95.99
2023-01-08T21:07:40.827Z,96.35
2023-01-08T21:10:10.464Z,96.22
2023-01-08T21:12:40.018Z,96.29
2023-01-08T21:15:09.938Z,96.25
2023-01-08T21:17:38.029Z,96.46
2023-01-08T21:20:07.736Z,96.32
2023-01-08T21:22:35.805Z,96.35
2023-01-08T21:25:03.894Z,96.37
2023-01-08T21:27:32.147Z,96.35
2023-01-08T21:30:01.744Z,96.92
2023-01-08T21:32:29.788Z,96.52
2023-01-08T21:34:57.915Z,96.78
2023-01-08T21:37:26.015Z,97.24
2023-01-08T21:39:54.074Z,96.88
2023-01-08T21:42:44.981Z,96.98
2023-01-08T21:45:26.468Z,96.61
2023-01-08T21:47:56.786Z,96.73
2023-01-08T21:50:25.933Z,96.39
2023-01-08T21:53:11.525Z,96.34
2023-01-08T21:55:41.380Z,96.59
2023-01-08T21:58:09.539Z,96.19
2023-01-08T22:00:39.616Z,96.45
2023-01-08T22:03:07.813Z,97.03
2023-01-08T22:05:35.920Z,97.43
2023-01-08T22:08:05.251Z,97.07
2023-01-08T22:10:33.377Z,97.08
2023-01-08T22:13:01.461Z,96.89
2023-01-08T22:15:29.654Z,96.62
2023-01-08T22:17:59.078Z,96.57
2023-01-08T22:20:27.160Z,96.69
2023-01-08T22:22:55.241Z,96.75
2023-01-08T22:25:23.299Z,96.78
2023-01-08T22:27:54.176Z,96.69
2023-01-08T22:30:22.260Z,96.50
2023-01-08T22:32:50.366Z,96.56
2023-01-08T22:35:19.857Z,96.48
2023-01-08T22:37:47.955Z,96.85
2023-01-08T22:40:16.223Z,96.64
2023-01-08T22:42:44.319Z,96.49
2023-01-08T22:45:12.570Z,96.48
2023-01-08T22:47:40.621Z,96.56
2023-01-08T22:50:09.588Z,96.81
2023-01-08T22:52:39.224Z,96.73
2023-01-08T22:55:08.242Z,96.69
2023-01-08T22:57:36.287Z,96.70
2023-01-08T23:00:05.868Z,96.78
2023-01-08T23:02:33.967Z,97.18
2023-01-08T23:05:02.076Z,97.05
2023-01-08T23:07:30.229Z,97.31
2023-01-08T23:09:59.674Z,97.30
2023-01-08T23:12:27.790Z,97.30
2023-01-08T23:14:55.869Z,97.42
2023-01-08T23:17:23.952Z,97.73
2023-01-08T23:19:52.009Z,97.85
2023-01-08T23:22:20.079Z,98.04
2023-01-08T23:24:48.152Z,97.80
2023-01-08T23:27:17.627Z,97.70
2023-01-08T23:29:45.878Z,97.59
2023-01-08T23:32:13.901Z,97.93
2023-01-08T23:34:42.017Z,97.54
2023-01-08T23:37:10.278Z,97.67
2023-01-08T23:39:38.515Z,97.81
2023-01-08T23:42:06.723Z,97.44
2023-01-08T23:44:36.186Z,97.90
2023-01-08T23:47:04.293Z,97.57
2023-01-08T23:49:32.419Z,97.99
2023-01-08T23:52:00.488Z,97.73
2023-01-08T23:54:28.629Z,97.72
2023-01-08T23:56:56.684Z,97.63
2023-01-08T23:59:24.767Z,97.83
